sensor_id;sensor_type;location;lat;lon;timestamp;temperature;humidity
25582;DHT22;13462;50.764;4.332;2022-10-15T00:01:50;14.50;99.90
25582;DHT22;13462;50.764;4.332;2022-10-15T00:04:15;14.50;99.90
25582;DHT22;13462;50.764;4.332;2022-10-15T00:06:41;14.50;99.90
25582;DHT22;13462;50.764;4.332;2022-10-15T00:09:06;14.50;99.90
25582;DHT22;13462;50.764;4.332;2022-10-15T00:11:32;14.60;99.90
25582;DHT22;13462;50.764;4.332;2022-10-15T00:13:58;14.60;99.90
25582;DHT22;13462;50.764;4.332;2022-10-15T00:16:24;14.50;99.90
25582;DHT22;13462;50.764;4.332;2022-10-15T00:18:50;14.50;99.90
25582;DHT22;13462;50.764;4.332;2022-10-15T00:21:17;14.50;99.90
25582;DHT22;13462;50.764;4.332;2022-10-15T00:23:43;14.60;99.90
25582;DHT22;13462;50.764;4.332;2022-10-15T00:26:09;14.60;99.90
25582;DHT22;13462;50.764;4.332;2022-10-15T00:28:35;14.50;99.90
25582;DHT22;13462;50.764;4.332;2022-10-15T00:31:05;14.50;99.90
25582;DHT22;13462;50.764;4.332;2022-10-15T00:33:31;14.50;99.90
25582;DHT22;13462;50.764;4.332;2022-10-15T00:35:57;14.50;99.90
25582;DHT22;13462;50.764;4.332;2022-10-15T00:38:23;14.60;99.90
25582;DHT22;13462;50.764;4.332;2022-10-15T00:40:49;14.60;99.90
25582;DHT22;13462;50.764;4.332;2022-10-15T00:43:14;14.60;99.90
25582;DHT22;13462;50.764;4.332;2022-10-15T00:45:40;14.60;99.90
25582;DHT22;13462;50.764;4.332;2022-10-15T00:48:05;14.50;99.90
25582;DHT22;13462;50.764;4.332;2022-10-15T00:50:31;14.60;99.90
25582;DHT22;13462;50.764;4.332;2022-10-15T00:52:59;14.60;99.90
25582;DHT22;13462;50.764;4.332;2022-10-15T00:55:27;14.60;99.90
25582;DHT22;13462;50.764;4.332;2022-10-15T00:57:53;14.60;99.90
25582;DHT22;13462;50.764;4.332;2022-10-15T01:00:20;14.60;99.90
25582;DHT22;13462;50.764;4.332;2022-10-15T01:02:45;14.50;99.90
25582;DHT22;13462;50.764;4.332;2022-10-15T01:05:11;14.50;99.90
25582;DHT22;13462;50.764;4.332;2022-10-15T01:07:37;14.50;99.90
25582;DHT22;13462;50.764;4.332;2022-10-15T01:10:03;14.50;99.90
25582;DHT22;13462;50.764;4.332;2022-10-15T01:15:02;14.50;99.90
25582;DHT22;13462;50.764;4.332;2022-10-15T01:17:51;14.60;99.90
25582;DHT22;13462;50.764;4.332;2022-10-15T01:24:21;14.50;99.90
25582;DHT22;13462;50.764;4.332;2022-10-15T01:26:34;14.50;99.90
25582;DHT22;13462;50.764;4.332;2022-10-15T01:29:06;14.40;99.90
25582;DHT22;13462;50.764;4.332;2022-10-15T01:34:13;14.20;99.90
25582;DHT22;13462;50.764;4.332;2022-10-15T01:39:28;14.30;99.90
25582;DHT22;13462;50.764;4.332;2022-10-15T01:41:59;14.40;99.90
25582;DHT22;13462;50.764;4.332;2022-10-15T01:44:30;14.40;99.90
25582;DHT22;13462;50.764;4.332;2022-10-15T01:47:01;14.40;99.90
25582;DHT22;13462;50.764;4.332;2022-10-15T01:49:29;14.20;99.90
25582;DHT22;13462;50.764;4.332;2022-10-15T01:51:56;14.30;99.90
25582;DHT22;13462;50.764;4.332;2022-10-15T01:54:23;14.20;99.90
25582;DHT22;13462;50.764;4.332;2022-10-15T01:56:50;14.20;99.90
25582;DHT22;13462;50.764;4.332;2022-10-15T01:59:16;14.20;99.90
25582;DHT22;13462;50.764;4.332;2022-10-15T02:01:43;14.30;99.90
25582;DHT22;13462;50.764;4.332;2022-10-15T02:04:19;14.30;99.90
25582;DHT22;13462;50.764;4.332;2022-10-15T02:06:45;14.30;99.90
25582;DHT22;13462;50.764;4.332;2022-10-15T02:09:22;14.20;99.90
25582;DHT22;13462;50.764;4.332;2022-10-15T02:11:57;14.20;99.90
25582;DHT22;13462;50.764;4.332;2022-10-15T02:14:28;14.20;99.90
25582;DHT22;13462;50.764;4.332;2022-10-15T02:17:07;14.30;99.90
25582;DHT22;13462;50.764;4.332;2022-10-15T02:19:42;14.20;99.90
25582;DHT22;13462;50.764;4.332;2022-10-15T02:22:13;14.30;99.90
25582;DHT22;13462;50.764;4.332;2022-10-15T02:24:57;14.40;99.90
25582;DHT22;13462;50.764;4.332;2022-10-15T02:27:26;14.50;99.90
25582;DHT22;13462;50.764;4.332;2022-10-15T02:29:52;14.40;99.90
25582;DHT22;13462;50.764;4.332;2022-10-15T02:32:21;14.30;99.90
25582;DHT22;13462;50.764;4.332;2022-10-15T02:34:48;14.30;99.90
25582;DHT22;13462;50.764;4.332;2022-10-15T02:37:14;14.30;99.90
25582;DHT22;13462;50.764;4.332;2022-10-15T02:39:41;14.20;99.90
25582;DHT22;13462;50.764;4.332;2022-10-15T02:42:08;14.20;99.90
25582;DHT22;13462;50.764;4.332;2022-10-15T02:44:33;14.30;99.90
25582;DHT22;13462;50.764;4.332;2022-10-15T02:46:59;14.30;99.90
25582;DHT22;13462;50.764;4.332;2022-10-15T02:49:24;14.20;99.90
25582;DHT22;13462;50.764;4.332;2022-10-15T02:51:50;14.20;99.90
25582;DHT22;13462;50.764;4.332;2022-10-15T02:54:15;14.20;99.90
25582;DHT22;13462;50.764;4.332;2022-10-15T02:56:41;14.20;99.90
25582;DHT22;13462;50.764;4.332;2022-10-15T02:59:06;14.20;99.90
25582;DHT22;13462;50.764;4.332;2022-10-15T03:01:32;14.20;99.90
25582;DHT22;13462;50.764;4.332;2022-10-15T03:03:58;14.30;99.90
25582;DHT22;13462;50.764;4.332;2022-10-15T03:06:23;14.30;99.90
25582;DHT22;13462;50.764;4.332;2022-10-15T03:08:49;14.40;99.90
25582;DHT22;13462;50.764;4.332;2022-10-15T03:11:14;14.40;99.90
25582;DHT22;13462;50.764;4.332;2022-10-15T03:13:40;14.30;99.90
25582;DHT22;13462;50.764;4.332;2022-10-15T03:16:07;14.20;99.90
25582;DHT22;13462;50.764;4.332;2022-10-15T03:18:33;14.30;99.90
25582;DHT22;13462;50.764;4.332;2022-10-15T03:20:58;14.20;99.90
25582;DHT22;13462;50.764;4.332;2022-10-15T03:23:24;14.20;99.90
25582;DHT22;13462;50.764;4.332;2022-10-15T03:25:50;14.20;99.90
25582;DHT22;13462;50.764;4.332;2022-10-15T03:28:17;14.30;99.90
25582;DHT22;13462;50.764;4.332;2022-10-15T03:30:42;14.30;99.90
25582;DHT22;13462;50.764;4.332;2022-10-15T03:33:08;14.30;99.90
25582;DHT22;13462;50.764;4.332;2022-10-15T03:35:34;14.10;99.90
25582;DHT22;13462;50.764;4.332;2022-10-15T03:37:59;13.90;99.90
25582;DHT22;13462;50.764;4.332;2022-10-15T03:40:25;13.80;99.90
25582;DHT22;13462;50.764;4.332;2022-10-15T03:42:50;13.70;99.90
25582;DHT22;13462;50.764;4.332;2022-10-15T03:45:19;13.60;99.90
25582;DHT22;13462;50.764;4.332;2022-10-15T03:47:45;13.50;99.90
25582;DHT22;13462;50.764;4.332;2022-10-15T03:50:10;13.50;99.90
25582;DHT22;13462;50.764;4.332;2022-10-15T03:52:36;13.50;99.90
25582;DHT22;13462;50.764;4.332;2022-10-15T03:55:02;13.50;99.90
25582;DHT22;13462;50.764;4.332;2022-10-15T03:57:27;13.60;99.90
25582;DHT22;13462;50.764;4.332;2022-10-15T03:59:53;13.70;99.90
25582;DHT22;13462;50.764;4.332;2022-10-15T04:02:18;13.70;99.90
25582;DHT22;13462;50.764;4.332;2022-10-15T04:04:44;13.80;99.90
25582;DHT22;13462;50.764;4.332;2022-10-15T04:07:09;13.80;99.90
25582;DHT22;13462;50.764;4.332;2022-10-15T04:09:35;13.80;99.90
25582;DHT22;13462;50.764;4.332;2022-10-15T04:12:00;13.70;99.90
25582;DHT22;13462;50.764;4.332;2022-10-15T04:14:26;13.70;99.90
25582;DHT22;13462;50.764;4.332;2022-10-15T04:16:51;13.70;99.90
25582;DHT22;13462;50.764;4.332;2022-10-15T04:19:17;13.70;99.90
25582;DHT22;13462;50.764;4.332;2022-10-15T04:21:42;13.70;99.90
25582;DHT22;13462;50.764;4.332;2022-10-15T04:24:08;13.60;99.90
25582;DHT22;13462;50.764;4.332;2022-10-15T04:26:33;13.60;99.90
25582;DHT22;13462;50.764;4.332;2022-10-15T04:28:59;13.60;99.90
25582;DHT22;13462;50.764;4.332;2022-10-15T04:31:25;13.70;99.90
25582;DHT22;13462;50.764;4.332;2022-10-15T04:33:50;13.70;99.90
25582;DHT22;13462;50.764;4.332;2022-10-15T04:36:16;13.60;99.90
25582;DHT22;13462;50.764;4.332;2022-10-15T04:38:41;13.60;99.90
25582;DHT22;13462;50.764;4.332;2022-10-15T04:41:08;13.60;99.90
25582;DHT22;13462;50.764;4.332;2022-10-15T04:43:33;13.50;99.90
25582;DHT22;13462;50.764;4.332;2022-10-15T04:46:00;13.60;99.90
25582;DHT22;13462;50.764;4.332;2022-10-15T04:51:10;13.70;99.90
25582;DHT22;13462;50.764;4.332;2022-10-15T04:53:36;13.80;99.90
25582;DHT22;13462;50.764;4.332;2022-10-15T04:56:13;13.70;99.90
25582;DHT22;13462;50.764;4.332;2022-10-15T04:58:40;13.80;99.90
25582;DHT22;13462;50.764;4.332;2022-10-15T05:01:07;13.80;99.90
25582;DHT22;13462;50.764;4.332;2022-10-15T05:03:44;13.90;99.90
25582;DHT22;13462;50.764;4.332;2022-10-15T05:06:10;13.80;99.90
25582;DHT22;13462;50.764;4.332;2022-10-15T05:11:34;13.80;99.90
25582;DHT22;13462;50.764;4.332;2022-10-15T05:13:59;13.80;99.90
25582;DHT22;13462;50.764;4.332;2022-10-15T05:16:26;13.80;99.90
25582;DHT22;13462;50.764;4.332;2022-10-15T05:18:54;13.80;99.90
25582;DHT22;13462;50.764;4.332;2022-10-15T05:21:20;13.70;99.90
25582;DHT22;13462;50.764;4.332;2022-10-15T05:23:45;13.80;99.90
25582;DHT22;13462;50.764;4.332;2022-10-15T05:26:22;13.80;99.90
25582;DHT22;13462;50.764;4.332;2022-10-15T05:29:06;13.80;99.90
25582;DHT22;13462;50.764;4.332;2022-10-15T05:31:32;13.80;99.90
25582;DHT22;13462;50.764;4.332;2022-10-15T05:33:57;13.90;99.90
25582;DHT22;13462;50.764;4.332;2022-10-15T05:36:24;13.90;99.90
25582;DHT22;13462;50.764;4.332;2022-10-15T05:38:51;13.90;99.90
25582;DHT22;13462;50.764;4.332;2022-10-15T05:41:17;14.00;99.90
25582;DHT22;13462;50.764;4.332;2022-10-15T05:43:46;14.00;99.90
25582;DHT22;13462;50.764;4.332;2022-10-15T05:46:12;14.00;99.90
25582;DHT22;13462;50.764;4.332;2022-10-15T05:48:38;14.00;99.90
25582;DHT22;13462;50.764;4.332;2022-10-15T05:51:09;14.10;99.90
25582;DHT22;13462;50.764;4.332;2022-10-15T05:53:35;14.10;99.90
25582;DHT22;13462;50.764;4.332;2022-10-15T05:56:01;14.10;99.90
25582;DHT22;13462;50.764;4.332;2022-10-15T05:58:27;14.20;99.90
25582;DHT22;13462;50.764;4.332;2022-10-15T06:00:54;14.20;99.90
25582;DHT22;13462;50.764;4.332;2022-10-15T06:03:20;14.20;99.90
25582;DHT22;13462;50.764;4.332;2022-10-15T06:05:45;14.10;99.90
25582;DHT22;13462;50.764;4.332;2022-10-15T06:08:11;14.10;99.90
25582;DHT22;13462;50.764;4.332;2022-10-15T06:10:36;14.20;99.90
25582;DHT22;13462;50.764;4.332;2022-10-15T06:13:02;14.20;99.90
25582;DHT22;13462;50.764;4.332;2022-10-15T06:15:28;14.20;99.90
25582;DHT22;13462;50.764;4.332;2022-10-15T06:17:53;14.20;99.90
25582;DHT22;13462;50.764;4.332;2022-10-15T06:20:19;14.20;99.90
25582;DHT22;13462;50.764;4.332;2022-10-15T06:22:44;14.20;99.90
25582;DHT22;13462;50.764;4.332;2022-10-15T06:25:10;14.20;99.90
25582;DHT22;13462;50.764;4.332;2022-10-15T06:27:35;14.20;99.90
25582;DHT22;13462;50.764;4.332;2022-10-15T06:30:01;14.30;99.90
25582;DHT22;13462;50.764;4.332;2022-10-15T06:32:26;14.30;99.90
25582;DHT22;13462;50.764;4.332;2022-10-15T06:34:52;14.40;99.90
25582;DHT22;13462;50.764;4.332;2022-10-15T06:37:17;14.30;99.90
25582;DHT22;13462;50.764;4.332;2022-10-15T06:39:43;14.40;99.90
25582;DHT22;13462;50.764;4.332;2022-10-15T06:42:10;14.40;99.90
25582;DHT22;13462;50.764;4.332;2022-10-15T06:44:36;14.40;99.90
25582;DHT22;13462;50.764;4.332;2022-10-15T06:47:02;14.50;99.90
25582;DHT22;13462;50.764;4.332;2022-10-15T06:49:27;14.60;99.90
25582;DHT22;13462;50.764;4.332;2022-10-15T06:51:53;14.60;99.90
25582;DHT22;13462;50.764;4.332;2022-10-15T06:54:18;14.60;99.90
25582;DHT22;13462;50.764;4.332;2022-10-15T06:56:44;14.60;99.90
25582;DHT22;13462;50.764;4.332;2022-10-15T06:59:09;14.60;99.90
25582;DHT22;13462;50.764;4.332;2022-10-15T07:01:35;14.70;99.90
25582;DHT22;13462;50.764;4.332;2022-10-15T07:04:00;14.70;99.90
25582;DHT22;13462;50.764;4.332;2022-10-15T07:06:26;14.80;99.90
25582;DHT22;13462;50.764;4.332;2022-10-15T07:08:51;14.70;99.90
25582;DHT22;13462;50.764;4.332;2022-10-15T07:11:16;14.70;99.90
25582;DHT22;13462;50.764;4.332;2022-10-15T07:13:42;14.80;99.90
25582;DHT22;13462;50.764;4.332;2022-10-15T07:16:09;14.80;99.90
25582;DHT22;13462;50.764;4.332;2022-10-15T07:18:35;14.90;99.90
25582;DHT22;13462;50.764;4.332;2022-10-15T07:21:02;14.90;99.90
25582;DHT22;13462;50.764;4.332;2022-10-15T07:23:28;15.00;99.90
25582;DHT22;13462;50.764;4.332;2022-10-15T07:25:54;15.00;99.90
25582;DHT22;13462;50.764;4.332;2022-10-15T07:28:21;15.10;99.90
25582;DHT22;13462;50.764;4.332;2022-10-15T07:30:46;15.10;99.90
25582;DHT22;13462;50.764;4.332;2022-10-15T07:33:11;15.10;99.90
25582;DHT22;13462;50.764;4.332;2022-10-15T07:35:37;15.10;99.90
25582;DHT22;13462;50.764;4.332;2022-10-15T07:38:03;15.10;99.90
25582;DHT22;13462;50.764;4.332;2022-10-15T07:40:28;15.10;99.90
25582;DHT22;13462;50.764;4.332;2022-10-15T07:42:57;15.10;99.90
25582;DHT22;13462;50.764;4.332;2022-10-15T07:45:23;15.10;99.90
25582;DHT22;13462;50.764;4.332;2022-10-15T07:47:49;15.10;99.90
25582;DHT22;13462;50.764;4.332;2022-10-15T07:50:14;15.20;99.90
25582;DHT22;13462;50.764;4.332;2022-10-15T07:52:40;15.20;99.90
25582;DHT22;13462;50.764;4.332;2022-10-15T07:55:06;15.20;99.90
25582;DHT22;13462;50.764;4.332;2022-10-15T07:57:31;15.20;99.90
25582;DHT22;13462;50.764;4.332;2022-10-15T07:59:57;15.20;99.90
25582;DHT22;13462;50.764;4.332;2022-10-15T08:02:22;15.30;99.90
25582;DHT22;13462;50.764;4.332;2022-10-15T08:04:48;15.30;99.90
25582;DHT22;13462;50.764;4.332;2022-10-15T08:07:13;15.30;99.90
25582;DHT22;13462;50.764;4.332;2022-10-15T08:09:39;15.30;99.90
25582;DHT22;13462;50.764;4.332;2022-10-15T08:12:04;15.20;99.90
25582;DHT22;13462;50.764;4.332;2022-10-15T08:14:31;15.30;99.90
25582;DHT22;13462;50.764;4.332;2022-10-15T08:16:57;15.40;99.90
25582;DHT22;13462;50.764;4.332;2022-10-15T08:19:22;15.40;99.90
25582;DHT22;13462;50.764;4.332;2022-10-15T08:21:48;15.50;99.90
25582;DHT22;13462;50.764;4.332;2022-10-15T08:24:13;15.60;99.90
25582;DHT22;13462;50.764;4.332;2022-10-15T08:26:39;15.60;99.90
25582;DHT22;13462;50.764;4.332;2022-10-15T08:29:04;15.60;99.90
25582;DHT22;13462;50.764;4.332;2022-10-15T08:31:30;15.70;99.90
25582;DHT22;13462;50.764;4.332;2022-10-15T08:33:59;15.70;99.90
25582;DHT22;13462;50.764;4.332;2022-10-15T08:36:25;15.70;99.90
25582;DHT22;13462;50.764;4.332;2022-10-15T08:38:50;15.70;99.90
25582;DHT22;13462;50.764;4.332;2022-10-15T08:41:19;15.80;99.90
25582;DHT22;13462;50.764;4.332;2022-10-15T08:43:45;15.80;99.90
25582;DHT22;13462;50.764;4.332;2022-10-15T08:46:13;15.80;99.90
25582;DHT22;13462;50.764;4.332;2022-10-15T08:48:43;15.90;99.90
25582;DHT22;13462;50.764;4.332;2022-10-15T08:51:09;16.10;99.90
25582;DHT22;13462;50.764;4.332;2022-10-15T08:53:40;16.10;99.90
25582;DHT22;13462;50.764;4.332;2022-10-15T08:56:11;16.00;99.90
25582;DHT22;13462;50.764;4.332;2022-10-15T09:01:26;16.20;99.90
25582;DHT22;13462;50.764;4.332;2022-10-15T09:06:29;16.20;99.90
25582;DHT22;13462;50.764;4.332;2022-10-15T09:14:10;16.30;99.90
25582;DHT22;13462;50.764;4.332;2022-10-15T09:16:38;16.20;99.90
25582;DHT22;13462;50.764;4.332;2022-10-15T09:19:09;16.40;99.90
25582;DHT22;13462;50.764;4.332;2022-10-15T09:21:37;16.50;99.90
25582;DHT22;13462;50.764;4.332;2022-10-15T09:24:03;16.50;99.90
25582;DHT22;13462;50.764;4.332;2022-10-15T09:26:35;16.70;99.90
25582;DHT22;13462;50.764;4.332;2022-10-15T09:31:57;16.70;99.90
25582;DHT22;13462;50.764;4.332;2022-10-15T09:34:33;16.80;99.90
25582;DHT22;13462;50.764;4.332;2022-10-15T09:37:01;16.90;99.90
25582;DHT22;13462;50.764;4.332;2022-10-15T09:42:08;16.80;99.90
25582;DHT22;13462;50.764;4.332;2022-10-15T09:44:35;16.90;99.90
25582;DHT22;13462;50.764;4.332;2022-10-15T09:47:06;17.00;99.90
25582;DHT22;13462;50.764;4.332;2022-10-15T09:49:38;17.10;99.90
25582;DHT22;13462;50.764;4.332;2022-10-15T09:52:12;17.20;99.90
25582;DHT22;13462;50.764;4.332;2022-10-15T09:54:58;17.20;99.90
25582;DHT22;13462;50.764;4.332;2022-10-15T09:57:26;17.40;99.90
25582;DHT22;13462;50.764;4.332;2022-10-15T09:59:57;17.40;99.90
25582;DHT22;13462;50.764;4.332;2022-10-15T10:02:25;17.40;99.90
25582;DHT22;13462;50.764;4.332;2022-10-15T10:04:51;17.60;99.90
25582;DHT22;13462;50.764;4.332;2022-10-15T10:07:33;17.70;99.90
25582;DHT22;13462;50.764;4.332;2022-10-15T10:10:02;17.70;99.90
25582;DHT22;13462;50.764;4.332;2022-10-15T10:12:32;17.90;99.90
25582;DHT22;13462;50.764;4.332;2022-10-15T10:15:29;18.00;99.90
25582;DHT22;13462;50.764;4.332;2022-10-15T10:17:51;18.10;99.90
25582;DHT22;13462;50.764;4.332;2022-10-15T10:20:18;18.00;99.90
25582;DHT22;13462;50.764;4.332;2022-10-15T10:22:51;17.90;99.90
25582;DHT22;13462;50.764;4.332;2022-10-15T10:30:26;17.80;99.90
25582;DHT22;13462;50.764;4.332;2022-10-15T10:32:57;17.70;99.90
25582;DHT22;13462;50.764;4.332;2022-10-15T10:35:24;17.70;99.90
25582;DHT22;13462;50.764;4.332;2022-10-15T10:37:50;17.70;99.90
25582;DHT22;13462;50.764;4.332;2022-10-15T10:42:45;17.80;99.90
25582;DHT22;13462;50.764;4.332;2022-10-15T10:45:15;17.80;99.90
25582;DHT22;13462;50.764;4.332;2022-10-15T10:47:41;17.90;99.90
25582;DHT22;13462;50.764;4.332;2022-10-15T10:52:50;18.10;99.90
25582;DHT22;13462;50.764;4.332;2022-10-15T10:55:16;18.10;99.90
25582;DHT22;13462;50.764;4.332;2022-10-15T10:57:49;18.30;99.90
25582;DHT22;13462;50.764;4.332;2022-10-15T11:00:28;18.20;99.90
25582;DHT22;13462;50.764;4.332;2022-10-15T11:02:57;18.20;99.90
25582;DHT22;13462;50.764;4.332;2022-10-15T11:05:29;18.10;99.90
25582;DHT22;13462;50.764;4.332;2022-10-15T11:10:29;18.40;99.90
25582;DHT22;13462;50.764;4.332;2022-10-15T11:13:16;18.30;99.90
25582;DHT22;13462;50.764;4.332;2022-10-15T11:15:50;18.30;99.90
25582;DHT22;13462;50.764;4.332;2022-10-15T11:18:32;18.40;99.90
25582;DHT22;13462;50.764;4.332;2022-10-15T11:21:05;18.60;99.90
25582;DHT22;13462;50.764;4.332;2022-10-15T11:23:40;18.70;99.90
25582;DHT22;13462;50.764;4.332;2022-10-15T11:26:28;18.80;99.90
25582;DHT22;13462;50.764;4.332;2022-10-15T11:29:10;18.80;99.90
25582;DHT22;13462;50.764;4.332;2022-10-15T11:36:52;18.50;99.90
25582;DHT22;13462;50.764;4.332;2022-10-15T11:49:30;18.30;99.90
25582;DHT22;13462;50.764;4.332;2022-10-15T11:57:00;18.20;99.90
25582;DHT22;13462;50.764;4.332;2022-10-15T11:59:32;18.00;99.90
25582;DHT22;13462;50.764;4.332;2022-10-15T12:02:08;18.00;99.90
25582;DHT22;13462;50.764;4.332;2022-10-15T12:07:12;17.90;99.90
25582;DHT22;13462;50.764;4.332;2022-10-15T12:09:40;18.00;99.90
25582;DHT22;13462;50.764;4.332;2022-10-15T12:15:03;18.30;99.90
25582;DHT22;13462;50.764;4.332;2022-10-15T12:17:35;18.50;99.90
25582;DHT22;13462;50.764;4.332;2022-10-15T12:20:14;18.60;99.90
25582;DHT22;13462;50.764;4.332;2022-10-15T12:22:52;18.70;99.90
25582;DHT22;13462;50.764;4.332;2022-10-15T12:28:11;18.40;99.90
25582;DHT22;13462;50.764;4.332;2022-10-15T12:30:37;18.30;99.90
25582;DHT22;13462;50.764;4.332;2022-10-15T12:33:20;18.30;99.90
25582;DHT22;13462;50.764;4.332;2022-10-15T12:36:21;18.40;99.90
25582;DHT22;13462;50.764;4.332;2022-10-15T12:38:38;18.50;99.90
25582;DHT22;13462;50.764;4.332;2022-10-15T12:41:09;19.00;99.90
25582;DHT22;13462;50.764;4.332;2022-10-15T12:43:36;20.00;99.90
25582;DHT22;13462;50.764;4.332;2022-10-15T12:46:03;20.80;99.90
25582;DHT22;13462;50.764;4.332;2022-10-15T12:48:31;21.60;99.90
25582;DHT22;13462;50.764;4.332;2022-10-15T12:51:27;21.90;99.90
25582;DHT22;13462;50.764;4.332;2022-10-15T12:53:43;21.90;99.90
25582;DHT22;13462;50.764;4.332;2022-10-15T12:58:44;22.40;99.90
25582;DHT22;13462;50.764;4.332;2022-10-15T13:03:40;23.60;99.90
25582;DHT22;13462;50.764;4.332;2022-10-15T13:08:42;23.00;99.90
25582;DHT22;13462;50.764;4.332;2022-10-15T13:13:43;21.90;99.90
25582;DHT22;13462;50.764;4.332;2022-10-15T13:16:10;21.20;99.90
25582;DHT22;13462;50.764;4.332;2022-10-15T13:18:37;20.90;99.90
25582;DHT22;13462;50.764;4.332;2022-10-15T13:21:03;21.20;99.90
25582;DHT22;13462;50.764;4.332;2022-10-15T13:23:29;21.50;99.90
25582;DHT22;13462;50.764;4.332;2022-10-15T13:28:41;22.20;99.90
25582;DHT22;13462;50.764;4.332;2022-10-15T13:31:11;22.80;99.90
25582;DHT22;13462;50.764;4.332;2022-10-15T13:33:41;21.90;99.90
25582;DHT22;13462;50.764;4.332;2022-10-15T13:36:07;21.50;99.90
25582;DHT22;13462;50.764;4.332;2022-10-15T13:38:34;21.70;99.90
25582;DHT22;13462;50.764;4.332;2022-10-15T13:41:01;21.50;99.90
25582;DHT22;13462;50.764;4.332;2022-10-15T13:43:27;21.00;99.90
25582;DHT22;13462;50.764;4.332;2022-10-15T13:45:54;21.10;99.90
25582;DHT22;13462;50.764;4.332;2022-10-15T13:48:20;20.80;99.90
25582;DHT22;13462;50.764;4.332;2022-10-15T13:50:47;20.40;99.90
25582;DHT22;13462;50.764;4.332;2022-10-15T13:53:16;20.20;99.90
25582;DHT22;13462;50.764;4.332;2022-10-15T13:55:46;20.10;99.90
25582;DHT22;13462;50.764;4.332;2022-10-15T13:58:20;20.00;99.90
25582;DHT22;13462;50.764;4.332;2022-10-15T14:03:31;19.90;99.90
25582;DHT22;13462;50.764;4.332;2022-10-15T14:05:57;20.10;99.90
25582;DHT22;13462;50.764;4.332;2022-10-15T14:08:33;20.20;99.90
25582;DHT22;13462;50.764;4.332;2022-10-15T14:10:59;20.00;99.90
25582;DHT22;13462;50.764;4.332;2022-10-15T14:13:25;19.90;99.90
25582;DHT22;13462;50.764;4.332;2022-10-15T14:15:58;19.50;99.90
25582;DHT22;13462;50.764;4.332;2022-10-15T14:18:58;19.30;99.90
25582;DHT22;13462;50.764;4.332;2022-10-15T14:21:17;19.40;99.90
25582;DHT22;13462;50.764;4.332;2022-10-15T14:23:44;19.70;99.90
25582;DHT22;13462;50.764;4.332;2022-10-15T14:26:10;19.90;99.90
25582;DHT22;13462;50.764;4.332;2022-10-15T14:28:37;20.10;99.90
25582;DHT22;13462;50.764;4.332;2022-10-15T14:31:03;20.10;99.90
25582;DHT22;13462;50.764;4.332;2022-10-15T14:38:28;19.80;99.90
25582;DHT22;13462;50.764;4.332;2022-10-15T14:40:57;19.90;99.90
25582;DHT22;13462;50.764;4.332;2022-10-15T14:43:27;20.50;99.90
25582;DHT22;13462;50.764;4.332;2022-10-15T14:45:54;20.90;99.90
25582;DHT22;13462;50.764;4.332;2022-10-15T14:48:22;20.90;99.90
25582;DHT22;13462;50.764;4.332;2022-10-15T14:50:48;20.50;99.90
25582;DHT22;13462;50.764;4.332;2022-10-15T14:53:18;20.20;99.90
25582;DHT22;13462;50.764;4.332;2022-10-15T14:55:47;20.10;99.90
25582;DHT22;13462;50.764;4.332;2022-10-15T14:58:19;19.70;99.90
25582;DHT22;13462;50.764;4.332;2022-10-15T15:00:46;19.30;99.90
25582;DHT22;13462;50.764;4.332;2022-10-15T15:03:13;19.00;99.90
25582;DHT22;13462;50.764;4.332;2022-10-15T15:05:43;18.70;99.90
25582;DHT22;13462;50.764;4.332;2022-10-15T15:08:09;18.70;99.90
25582;DHT22;13462;50.764;4.332;2022-10-15T15:10:35;18.70;99.90
25582;DHT22;13462;50.764;4.332;2022-10-15T15:13:00;18.70;99.90
25582;DHT22;13462;50.764;4.332;2022-10-15T15:15:26;18.70;99.90
25582;DHT22;13462;50.764;4.332;2022-10-15T15:17:52;18.60;99.90
25582;DHT22;13462;50.764;4.332;2022-10-15T15:20:17;18.60;99.90
25582;DHT22;13462;50.764;4.332;2022-10-15T15:22:44;18.60;99.90
25582;DHT22;13462;50.764;4.332;2022-10-15T15:25:14;18.60;99.90
25582;DHT22;13462;50.764;4.332;2022-10-15T15:27:41;18.80;99.90
25582;DHT22;13462;50.764;4.332;2022-10-15T15:30:12;18.80;99.90
25582;DHT22;13462;50.764;4.332;2022-10-15T15:32:38;18.80;99.90
25582;DHT22;13462;50.764;4.332;2022-10-15T15:35:13;18.80;99.90
25582;DHT22;13462;50.764;4.332;2022-10-15T15:37:40;18.70;99.90
25582;DHT22;13462;50.764;4.332;2022-10-15T15:40:06;18.70;99.90
25582;DHT22;13462;50.764;4.332;2022-10-15T15:42:31;18.40;99.90
25582;DHT22;13462;50.764;4.332;2022-10-15T15:44:57;18.30;99.90
25582;DHT22;13462;50.764;4.332;2022-10-15T15:47:22;18.10;99.90
25582;DHT22;13462;50.764;4.332;2022-10-15T15:49:48;18.00;99.90
25582;DHT22;13462;50.764;4.332;2022-10-15T15:52:13;18.10;99.90
25582;DHT22;13462;50.764;4.332;2022-10-15T15:54:41;18.00;99.90
25582;DHT22;13462;50.764;4.332;2022-10-15T15:57:06;17.90;99.90
25582;DHT22;13462;50.764;4.332;2022-10-15T15:59:32;17.70;99.90
25582;DHT22;13462;50.764;4.332;2022-10-15T16:01:57;17.70;99.90
25582;DHT22;13462;50.764;4.332;2022-10-15T16:04:23;17.60;99.90
25582;DHT22;13462;50.764;4.332;2022-10-15T16:06:48;17.60;99.90
25582;DHT22;13462;50.764;4.332;2022-10-15T16:09:17;17.60;99.90
25582;DHT22;13462;50.764;4.332;2022-10-15T16:11:43;17.60;99.90
25582;DHT22;13462;50.764;4.332;2022-10-15T16:14:09;17.40;99.90
25582;DHT22;13462;50.764;4.332;2022-10-15T16:16:35;17.40;99.90
25582;DHT22;13462;50.764;4.332;2022-10-15T16:19:01;17.40;99.90
25582;DHT22;13462;50.764;4.332;2022-10-15T16:21:27;17.20;99.90
25582;DHT22;13462;50.764;4.332;2022-10-15T16:23:52;17.10;99.90
25582;DHT22;13462;50.764;4.332;2022-10-15T16:26:18;17.00;99.90
25582;DHT22;13462;50.764;4.332;2022-10-15T16:28:43;17.00;99.90
25582;DHT22;13462;50.764;4.332;2022-10-15T16:31:12;16.90;99.90
25582;DHT22;13462;50.764;4.332;2022-10-15T16:33:38;16.80;99.90
25582;DHT22;13462;50.764;4.332;2022-10-15T16:36:04;16.70;99.90
25582;DHT22;13462;50.764;4.332;2022-10-15T16:38:29;16.70;99.90
25582;DHT22;13462;50.764;4.332;2022-10-15T16:40:55;16.70;99.90
25582;DHT22;13462;50.764;4.332;2022-10-15T16:43:20;16.60;99.90
25582;DHT22;13462;50.764;4.332;2022-10-15T16:45:53;16.50;99.90
25582;DHT22;13462;50.764;4.332;2022-10-15T16:48:18;16.50;99.90
25582;DHT22;13462;50.764;4.332;2022-10-15T16:50:43;16.40;99.90
25582;DHT22;13462;50.764;4.332;2022-10-15T16:53:09;16.30;99.90
25582;DHT22;13462;50.764;4.332;2022-10-15T16:55:34;16.20;99.90
25582;DHT22;13462;50.764;4.332;2022-10-15T16:58:00;16.10;99.90
25582;DHT22;13462;50.764;4.332;2022-10-15T17:00:25;16.00;99.90
25582;DHT22;13462;50.764;4.332;2022-10-15T17:02:51;16.00;99.90
25582;DHT22;13462;50.764;4.332;2022-10-15T17:05:16;16.00;99.90
25582;DHT22;13462;50.764;4.332;2022-10-15T17:07:42;16.00;99.90
25582;DHT22;13462;50.764;4.332;2022-10-15T17:10:07;15.80;99.90